sensor_id;sensor_type;location;lat;lon;timestamp;temperature;humidity
21459;DHT22;10891;49.350;19.386;2023-06-10T00:01:46;15.40;99.90
21459;DHT22;10891;49.350;19.386;2023-06-10T00:04:15;15.50;99.90
21459;DHT22;10891;49.350;19.386;2023-06-10T00:06:43;15.30;99.90
21459;DHT22;10891;49.350;19.386;2023-06-10T00:09:10;15.30;99.90
21459;DHT22;10891;49.350;19.386;2023-06-10T00:11:37;15.20;99.90
21459;DHT22;10891;49.350;19.386;2023-06-10T00:14:05;15.10;99.90
21459;DHT22;10891;49.350;19.386;2023-06-10T00:16:32;15.10;99.90
21459;DHT22;10891;49.350;19.386;2023-06-10T00:19:00;15.00;99.90
21459;DHT22;10891;49.350;19.386;2023-06-10T00:21:30;15.10;99.90
21459;DHT22;10891;49.350;19.386;2023-06-10T00:24:03;15.10;99.90
21459;DHT22;10891;49.350;19.386;2023-06-10T00:26:31;15.10;99.90
21459;DHT22;10891;49.350;19.386;2023-06-10T00:28:58;15.20;99.90
21459;DHT22;10891;49.350;19.386;2023-06-10T00:31:25;15.20;99.90
21459;DHT22;10891;49.350;19.386;2023-06-10T00:33:52;15.30;99.90
21459;DHT22;10891;49.350;19.386;2023-06-10T00:36:20;15.30;99.90
21459;DHT22;10891;49.350;19.386;2023-06-10T00:38:48;15.30;99.90
21459;DHT22;10891;49.350;19.386;2023-06-10T00:41:15;15.30;99.90
21459;DHT22;10891;49.350;19.386;2023-06-10T00:43:42;15.40;99.90
21459;DHT22;10891;49.350;19.386;2023-06-10T00:46:09;15.30;99.90
21459;DHT22;10891;49.350;19.386;2023-06-10T00:48:37;15.40;99.90
21459;DHT22;10891;49.350;19.386;2023-06-10T00:51:05;15.40;99.90
21459;DHT22;10891;49.350;19.386;2023-06-10T00:53:34;15.40;99.90
21459;DHT22;10891;49.350;19.386;2023-06-10T00:56:03;15.50;99.90
21459;DHT22;10891;49.350;19.386;2023-06-10T00:58:31;15.40;99.90
21459;DHT22;10891;49.350;19.386;2023-06-10T01:00:58;15.40;99.90
21459;DHT22;10891;49.350;19.386;2023-06-10T01:03:24;15.40;99.90
21459;DHT22;10891;49.350;19.386;2023-06-10T01:05:57;15.40;99.90
21459;DHT22;10891;49.350;19.386;2023-06-10T01:08:33;15.40;99.90
21459;DHT22;10891;49.350;19.386;2023-06-10T01:11:08;15.40;99.90
21459;DHT22;10891;49.350;19.386;2023-06-10T01:13:41;15.40;99.90
21459;DHT22;10891;49.350;19.386;2023-06-10T01:16:09;15.50;99.90
21459;DHT22;10891;49.350;19.386;2023-06-10T01:18:36;15.50;99.90
21459;DHT22;10891;49.350;19.386;2023-06-10T01:21:04;15.50;99.90
21459;DHT22;10891;49.350;19.386;2023-06-10T01:23:34;15.50;99.90
21459;DHT22;10891;49.350;19.386;2023-06-10T01:26:04;15.50;99.90
21459;DHT22;10891;49.350;19.386;2023-06-10T01:28:38;15.50;99.90
21459;DHT22;10891;49.350;19.386;2023-06-10T01:31:13;15.50;99.90
21459;DHT22;10891;49.350;19.386;2023-06-10T01:33:45;15.40;99.90
21459;DHT22;10891;49.350;19.386;2023-06-10T01:36:13;15.40;99.90
21459;DHT22;10891;49.350;19.386;2023-06-10T01:38:43;15.40;99.90
21459;DHT22;10891;49.350;19.386;2023-06-10T01:41:10;15.40;99.90
21459;DHT22;10891;49.350;19.386;2023-06-10T01:43:39;15.40;99.90
21459;DHT22;10891;49.350;19.386;2023-06-10T01:46:06;15.40;99.90
21459;DHT22;10891;49.350;19.386;2023-06-10T01:48:33;15.40;99.90
21459;DHT22;10891;49.350;19.386;2023-06-10T01:51:00;15.40;99.90
21459;DHT22;10891;49.350;19.386;2023-06-10T01:53:27;15.40;99.90
21459;DHT22;10891;49.350;19.386;2023-06-10T01:55:55;15.40;99.90
21459;DHT22;10891;49.350;19.386;2023-06-10T01:58:22;15.40;99.90
21459;DHT22;10891;49.350;19.386;2023-06-10T02:00:49;15.40;99.90
21459;DHT22;10891;49.350;19.386;2023-06-10T02:03:16;15.50;99.90
21459;DHT22;10891;49.350;19.386;2023-06-10T02:05:43;15.50;99.90
21459;DHT22;10891;49.350;19.386;2023-06-10T02:08:10;15.30;99.90
21459;DHT22;10891;49.350;19.386;2023-06-10T02:10:37;15.30;99.90
21459;DHT22;10891;49.350;19.386;2023-06-10T02:13:05;15.40;99.90
21459;DHT22;10891;49.350;19.386;2023-06-10T02:15:32;15.20;99.90
21459;DHT22;10891;49.350;19.386;2023-06-10T02:17:59;15.20;99.90
21459;DHT22;10891;49.350;19.386;2023-06-10T02:20:26;15.20;99.90
21459;DHT22;10891;49.350;19.386;2023-06-10T02:22:53;15.30;99.90
21459;DHT22;10891;49.350;19.386;2023-06-10T02:25:20;15.30;99.90
21459;DHT22;10891;49.350;19.386;2023-06-10T02:27:47;15.40;99.90
21459;DHT22;10891;49.350;19.386;2023-06-10T02:30:15;15.40;99.90
21459;DHT22;10891;49.350;19.386;2023-06-10T02:32:42;15.40;99.90
21459;DHT22;10891;49.350;19.386;2023-06-10T02:35:13;15.40;99.90
21459;DHT22;10891;49.350;19.386;2023-06-10T02:37:40;15.40;99.90
21459;DHT22;10891;49.350;19.386;2023-06-10T02:40:08;15.30;99.90
21459;DHT22;10891;49.350;19.386;2023-06-10T02:42:35;15.30;99.90
21459;DHT22;10891;49.350;19.386;2023-06-10T02:45:03;15.20;99.90
21459;DHT22;10891;49.350;19.386;2023-06-10T02:47:31;15.20;99.90
21459;DHT22;10891;49.350;19.386;2023-06-10T02:49:58;15.20;99.90
21459;DHT22;10891;49.350;19.386;2023-06-10T02:52:25;15.30;99.90
21459;DHT22;10891;49.350;19.386;2023-06-10T02:54:52;15.30;99.90
21459;DHT22;10891;49.350;19.386;2023-06-10T02:57:19;15.30;99.90
21459;DHT22;10891;49.350;19.386;2023-06-10T02:59:45;15.30;99.90
21459;DHT22;10891;49.350;19.386;2023-06-10T03:02:13;15.40;99.90
21459;DHT22;10891;49.350;19.386;2023-06-10T03:04:41;15.40;99.90
21459;DHT22;10891;49.350;19.386;2023-06-10T03:07:09;15.20;99.90
21459;DHT22;10891;49.350;19.386;2023-06-10T03:09:36;15.20;99.90
21459;DHT22;10891;49.350;19.386;2023-06-10T03:12:04;15.20;99.90
21459;DHT22;10891;49.350;19.386;2023-06-10T03:14:31;15.30;99.90
21459;DHT22;10891;49.350;19.386;2023-06-10T03:17:00;15.30;99.90
21459;DHT22;10891;49.350;19.386;2023-06-10T03:19:26;15.30;99.90
21459;DHT22;10891;49.350;19.386;2023-06-10T03:22:06;15.30;99.90
21459;DHT22;10891;49.350;19.386;2023-06-10T03:24:33;15.20;99.90
21459;DHT22;10891;49.350;19.386;2023-06-10T03:27:01;15.20;99.90
21459;DHT22;10891;49.350;19.386;2023-06-10T03:29:30;14.90;99.90
21459;DHT22;10891;49.350;19.386;2023-06-10T03:31:57;14.90;99.90
21459;DHT22;10891;49.350;19.386;2023-06-10T03:34:24;14.90;99.90
21459;DHT22;10891;49.350;19.386;2023-06-10T03:36:51;15.00;99.90
21459;DHT22;10891;49.350;19.386;2023-06-10T03:39:19;15.00;99.90
21459;DHT22;10891;49.350;19.386;2023-06-10T03:41:46;15.00;99.90
21459;DHT22;10891;49.350;19.386;2023-06-10T03:44:13;15.00;99.90
21459;DHT22;10891;49.350;19.386;2023-06-10T03:46:40;15.20;99.90
21459;DHT22;10891;49.350;19.386;2023-06-10T03:49:07;15.40;99.90
21459;DHT22;10891;49.350;19.386;2023-06-10T03:51:36;15.40;99.90
21459;DHT22;10891;49.350;19.386;2023-06-10T03:54:03;15.30;99.90
21459;DHT22;10891;49.350;19.386;2023-06-10T03:56:31;15.20;99.90
21459;DHT22;10891;49.350;19.386;2023-06-10T03:58:58;15.30;99.90
21459;DHT22;10891;49.350;19.386;2023-06-10T04:01:26;15.30;99.90
21459;DHT22;10891;49.350;19.386;2023-06-10T04:03:53;15.50;99.90
21459;DHT22;10891;49.350;19.386;2023-06-10T04:06:20;15.80;99.90
21459;DHT22;10891;49.350;19.386;2023-06-10T04:08:50;16.10;99.90
21459;DHT22;10891;49.350;19.386;2023-06-10T04:11:17;16.50;99.90
21459;DHT22;10891;49.350;19.386;2023-06-10T04:13:45;16.60;99.90
21459;DHT22;10891;49.350;19.386;2023-06-10T04:16:12;16.60;99.90
21459;DHT22;10891;49.350;19.386;2023-06-10T04:18:39;16.50;99.90
21459;DHT22;10891;49.350;19.386;2023-06-10T04:21:07;16.50;99.90
21459;DHT22;10891;49.350;19.386;2023-06-10T04:23:35;16.30;99.90
21459;DHT22;10891;49.350;19.386;2023-06-10T04:26:02;16.30;99.90
21459;DHT22;10891;49.350;19.386;2023-06-10T04:28:29;16.00;99.90
21459;DHT22;10891;49.350;19.386;2023-06-10T04:30:57;16.20;99.90
21459;DHT22;10891;49.350;19.386;2023-06-10T04:33:24;16.60;99.90
21459;DHT22;10891;49.350;19.386;2023-06-10T04:35:51;16.90;99.90
21459;DHT22;10891;49.350;19.386;2023-06-10T04:38:18;16.90;99.90
21459;DHT22;10891;49.350;19.386;2023-06-10T04:40:44;16.90;99.90
21459;DHT22;10891;49.350;19.386;2023-06-10T04:43:11;16.90;99.90
21459;DHT22;10891;49.350;19.386;2023-06-10T04:45:38;16.80;99.90
21459;DHT22;10891;49.350;19.386;2023-06-10T04:48:07;16.60;99.90
21459;DHT22;10891;49.350;19.386;2023-06-10T04:50:34;16.60;99.90
21459;DHT22;10891;49.350;19.386;2023-06-10T04:53:01;16.70;99.90
21459;DHT22;10891;49.350;19.386;2023-06-10T04:55:27;17.00;99.90
21459;DHT22;10891;49.350;19.386;2023-06-10T04:57:54;17.30;99.90
21459;DHT22;10891;49.350;19.386;2023-06-10T05:00:21;17.50;99.90
21459;DHT22;10891;49.350;19.386;2023-06-10T05:02:48;17.00;99.90
21459;DHT22;10891;49.350;19.386;2023-06-10T05:05:18;16.90;99.90
21459;DHT22;10891;49.350;19.386;2023-06-10T05:07:45;16.60;99.90
21459;DHT22;10891;49.350;19.386;2023-06-10T05:10:12;16.40;99.90
21459;DHT22;10891;49.350;19.386;2023-06-10T05:12:39;16.20;99.90
21459;DHT22;10891;49.350;19.386;2023-06-10T05:15:07;16.20;99.90
21459;DHT22;10891;49.350;19.386;2023-06-10T05:17:34;16.00;99.90
21459;DHT22;10891;49.350;19.386;2023-06-10T05:20:01;16.20;99.90
21459;DHT22;10891;49.350;19.386;2023-06-10T05:22:29;16.20;99.90
21459;DHT22;10891;49.350;19.386;2023-06-10T05:24:56;16.40;99.90
21459;DHT22;10891;49.350;19.386;2023-06-10T05:27:23;16.40;99.90
21459;DHT22;10891;49.350;19.386;2023-06-10T05:29:50;16.50;99.90
21459;DHT22;10891;49.350;19.386;2023-06-10T05:32:17;16.40;99.90
21459;DHT22;10891;49.350;19.386;2023-06-10T05:34:44;16.30;99.90
21459;DHT22;10891;49.350;19.386;2023-06-10T05:37:12;16.20;99.90
21459;DHT22;10891;49.350;19.386;2023-06-10T05:39:40;16.30;99.90
21459;DHT22;10891;49.350;19.386;2023-06-10T05:42:08;16.40;99.90
21459;DHT22;10891;49.350;19.386;2023-06-10T05:44:35;16.30;99.90
21459;DHT22;10891;49.350;19.386;2023-06-10T05:47:03;16.10;99.90
21459;DHT22;10891;49.350;19.386;2023-06-10T05:49:30;16.30;99.90
21459;DHT22;10891;49.350;19.386;2023-06-10T05:51:57;16.50;99.90
21459;DHT22;10891;49.350;19.386;2023-06-10T05:54:25;17.10;99.90
21459;DHT22;10891;49.350;19.386;2023-06-10T05:56:53;17.50;99.90
21459;DHT22;10891;49.350;19.386;2023-06-10T05:59:20;17.70;99.90
21459;DHT22;10891;49.350;19.386;2023-06-10T06:01:48;18.30;99.90
21459;DHT22;10891;49.350;19.386;2023-06-10T06:04:15;18.90;99.90
21459;DHT22;10891;49.350;19.386;2023-06-10T06:06:42;19.60;99.90
21459;DHT22;10891;49.350;19.386;2023-06-10T06:09:09;19.20;99.90
21459;DHT22;10891;49.350;19.386;2023-06-10T06:11:36;18.80;99.90
21459;DHT22;10891;49.350;19.386;2023-06-10T06:14:04;18.30;99.90
21459;DHT22;10891;49.350;19.386;2023-06-10T06:16:32;18.40;99.90
21459;DHT22;10891;49.350;19.386;2023-06-10T06:18:59;18.10;99.90
21459;DHT22;10891;49.350;19.386;2023-06-10T06:21:26;18.20;99.90
21459;DHT22;10891;49.350;19.386;2023-06-10T06:23:53;18.50;99.90
21459;DHT22;10891;49.350;19.386;2023-06-10T06:26:20;19.10;99.90
21459;DHT22;10891;49.350;19.386;2023-06-10T06:28:49;18.70;99.90
21459;DHT22;10891;49.350;19.386;2023-06-10T06:31:22;18.60;99.90
21459;DHT22;10891;49.350;19.386;2023-06-10T06:33:49;19.30;99.90
21459;DHT22;10891;49.350;19.386;2023-06-10T06:36:17;19.50;99.90
21459;DHT22;10891;49.350;19.386;2023-06-10T06:38:46;19.40;99.90
21459;DHT22;10891;49.350;19.386;2023-06-10T06:41:16;18.90;99.90
21459;DHT22;10891;49.350;19.386;2023-06-10T06:43:43;19.20;99.90
21459;DHT22;10891;49.350;19.386;2023-06-10T06:46:11;19.30;99.90
21459;DHT22;10891;49.350;19.386;2023-06-10T06:48:39;19.30;99.90
21459;DHT22;10891;49.350;19.386;2023-06-10T06:51:06;18.50;99.90
21459;DHT22;10891;49.350;19.386;2023-06-10T06:53:34;18.10;99.90
21459;DHT22;10891;49.350;19.386;2023-06-10T06:56:04;17.90;99.90
21459;DHT22;10891;49.350;19.386;2023-06-10T06:58:31;17.80;99.90
21459;DHT22;10891;49.350;19.386;2023-06-10T07:01:02;17.60;99.90
21459;DHT22;10891;49.350;19.386;2023-06-10T07:03:29;18.00;99.90
21459;DHT22;10891;49.350;19.386;2023-06-10T07:06:03;17.80;99.90
21459;DHT22;10891;49.350;19.386;2023-06-10T07:08:30;17.70;99.90
21459;DHT22;10891;49.350;19.386;2023-06-10T07:11:01;17.60;99.90
21459;DHT22;10891;49.350;19.386;2023-06-10T07:13:28;17.20;99.90
21459;DHT22;10891;49.350;19.386;2023-06-10T07:15:55;16.90;99.90
21459;DHT22;10891;49.350;19.386;2023-06-10T07:18:22;16.90;99.90
21459;DHT22;10891;49.350;19.386;2023-06-10T07:20:49;16.70;99.90
21459;DHT22;10891;49.350;19.386;2023-06-10T07:23:18;16.60;99.90
21459;DHT22;10891;49.350;19.386;2023-06-10T07:25:45;16.60;99.90
21459;DHT22;10891;49.350;19.386;2023-06-10T07:28:15;16.70;99.90
21459;DHT22;10891;49.350;19.386;2023-06-10T07:30:42;16.80;99.90
21459;DHT22;10891;49.350;19.386;2023-06-10T07:33:09;16.90;99.90
21459;DHT22;10891;49.350;19.386;2023-06-10T07:35:36;17.10;99.90
21459;DHT22;10891;49.350;19.386;2023-06-10T07:38:03;17.60;99.90
21459;DHT22;10891;49.350;19.386;2023-06-10T07:40:32;17.50;99.90
21459;DHT22;10891;49.350;19.386;2023-06-10T07:42:59;17.90;99.90
21459;DHT22;10891;49.350;19.386;2023-06-10T07:45:26;18.00;99.90
21459;DHT22;10891;49.350;19.386;2023-06-10T07:47:54;18.30;99.90
21459;DHT22;10891;49.350;19.386;2023-06-10T07:50:21;18.20;99.90
21459;DHT22;10891;49.350;19.386;2023-06-10T07:52:48;18.70;99.90
21459;DHT22;10891;49.350;19.386;2023-06-10T07:55:15;18.60;99.90
21459;DHT22;10891;49.350;19.386;2023-06-10T07:57:43;18.90;99.90
21459;DHT22;10891;49.350;19.386;2023-06-10T08:00:11;19.20;99.90
21459;DHT22;10891;49.350;19.386;2023-06-10T08:02:38;19.60;99.90
21459;DHT22;10891;49.350;19.386;2023-06-10T08:05:06;19.40;99.90
21459;DHT22;10891;49.350;19.386;2023-06-10T08:07:33;19.60;99.90
21459;DHT22;10891;49.350;19.386;2023-06-10T08:10:00;20.10;99.90
21459;DHT22;10891;49.350;19.386;2023-06-10T08:12:27;19.90;99.90
21459;DHT22;10891;49.350;19.386;2023-06-10T08:14:56;19.90;99.90
21459;DHT22;10891;49.350;19.386;2023-06-10T08:17:23;19.80;99.90
21459;DHT22;10891;49.350;19.386;2023-06-10T08:19:50;19.90;99.90
21459;DHT22;10891;49.350;19.386;2023-06-10T08:22:17;20.30;99.90
21459;DHT22;10891;49.350;19.386;2023-06-10T08:24:44;19.70;99.90
21459;DHT22;10891;49.350;19.386;2023-06-10T08:27:11;19.70;99.90
21459;DHT22;10891;49.350;19.386;2023-06-10T08:29:37;19.70;99.90
21459;DHT22;10891;49.350;19.386;2023-06-10T08:32:06;19.60;99.90
21459;DHT22;10891;49.350;19.386;2023-06-10T08:34:34;19.20;99.90
21459;DHT22;10891;49.350;19.386;2023-06-10T08:37:01;18.90;99.90
21459;DHT22;10891;49.350;19.386;2023-06-10T08:39:28;18.90;99.90
21459;DHT22;10891;49.350;19.386;2023-06-10T08:42:04;19.10;99.90
21459;DHT22;10891;49.350;19.386;2023-06-10T08:44:36;19.40;99.90
21459;DHT22;10891;49.350;19.386;2023-06-10T08:47:10;19.70;99.90
21459;DHT22;10891;49.350;19.386;2023-06-10T08:49:43;19.70;99.90
21459;DHT22;10891;49.350;19.386;2023-06-10T08:52:13;19.10;99.90
21459;DHT22;10891;49.350;19.386;2023-06-10T08:54:43;18.90;99.90
21459;DHT22;10891;49.350;19.386;2023-06-10T08:57:15;19.10;99.90
21459;DHT22;10891;49.350;19.386;2023-06-10T08:59:46;19.30;99.90
21459;DHT22;10891;49.350;19.386;2023-06-10T09:02:15;19.40;99.90
21459;DHT22;10891;49.350;19.386;2023-06-10T09:04:46;19.40;99.90
21459;DHT22;10891;49.350;19.386;2023-06-10T09:07:13;19.70;99.90
21459;DHT22;10891;49.350;19.386;2023-06-10T09:09:42;20.00;99.90
21459;DHT22;10891;49.350;19.386;2023-06-10T09:12:09;19.90;99.90
21459;DHT22;10891;49.350;19.386;2023-06-10T09:14:36;20.30;99.90
21459;DHT22;10891;49.350;19.386;2023-06-10T09:17:05;20.60;99.90
21459;DHT22;10891;49.350;19.386;2023-06-10T09:19:33;20.30;99.90
21459;DHT22;10891;49.350;19.386;2023-06-10T09:22:01;20.70;99.90
21459;DHT22;10891;49.350;19.386;2023-06-10T09:24:29;21.00;99.90
21459;DHT22;10891;49.350;19.386;2023-06-10T09:27:02;21.00;99.90
21459;DHT22;10891;49.350;19.386;2023-06-10T09:29:29;21.00;99.90
21459;DHT22;10891;49.350;19.386;2023-06-10T09:31:56;20.90;99.90
21459;DHT22;10891;49.350;19.386;2023-06-10T09:34:25;20.60;99.90
21459;DHT22;10891;49.350;19.386;2023-06-10T09:36:54;20.90;99.90
21459;DHT22;10891;49.350;19.386;2023-06-10T09:39:21;20.70;99.90
21459;DHT22;10891;49.350;19.386;2023-06-10T09:41:48;19.70;99.90
21459;DHT22;10891;49.350;19.386;2023-06-10T09:44:17;18.90;99.90
21459;DHT22;10891;49.350;19.386;2023-06-10T09:46:45;18.10;99.90
21459;DHT22;10891;49.350;19.386;2023-06-10T09:49:13;17.30;99.90
21459;DHT22;10891;49.350;19.386;2023-06-10T09:51:49;17.20;99.90
21459;DHT22;10891;49.350;19.386;2023-06-10T09:54:18;16.50;99.90
21459;DHT22;10891;49.350;19.386;2023-06-10T09:56:47;16.30;99.90
21459;DHT22;10891;49.350;19.386;2023-06-10T09:59:14;16.20;99.90
21459;DHT22;10891;49.350;19.386;2023-06-10T10:01:41;15.80;99.90
21459;DHT22;10891;49.350;19.386;2023-06-10T10:04:08;15.50;99.90
21459;DHT22;10891;49.350;19.386;2023-06-10T10:06:36;15.00;99.90
21459;DHT22;10891;49.350;19.386;2023-06-10T10:09:03;14.90;99.90
21459;DHT22;10891;49.350;19.386;2023-06-10T10:11:32;15.00;99.90
21459;DHT22;10891;49.350;19.386;2023-06-10T10:14:04;14.90;99.90
21459;DHT22;10891;49.350;19.386;2023-06-10T10:16:36;14.80;99.90
21459;DHT22;10891;49.350;19.386;2023-06-10T10:19:08;15.00;99.90
21459;DHT22;10891;49.350;19.386;2023-06-10T10:21:42;15.30;99.90
21459;DHT22;10891;49.350;19.386;2023-06-10T10:24:15;15.50;99.90
21459;DHT22;10891;49.350;19.386;2023-06-10T10:26:46;15.60;99.90
21459;DHT22;10891;49.350;19.386;2023-06-10T10:29:19;15.80;99.90
21459;DHT22;10891;49.350;19.386;2023-06-10T10:31:49;15.80;99.90
21459;DHT22;10891;49.350;19.386;2023-06-10T10:34:21;15.90;99.90
21459;DHT22;10891;49.350;19.386;2023-06-10T10:36:49;15.90;99.90
21459;DHT22;10891;49.350;19.386;2023-06-10T10:39:16;16.20;99.90
21459;DHT22;10891;49.350;19.386;2023-06-10T10:41:46;16.40;99.90
21459;DHT22;10891;49.350;19.386;2023-06-10T10:44:14;16.60;99.90
21459;DHT22;10891;49.350;19.386;2023-06-10T10:46:42;16.60;99.90
21459;DHT22;10891;49.350;19.386;2023-06-10T10:49:13;16.80;99.90
21459;DHT22;10891;49.350;19.386;2023-06-10T10:51:56;16.70;99.90
21459;DHT22;10891;49.350;19.386;2023-06-10T10:54:30;16.70;99.90
21459;DHT22;10891;49.350;19.386;2023-06-10T10:57:19;16.80;99.90
21459;DHT22;10891;49.350;19.386;2023-06-10T10:59:51;17.00;99.90
21459;DHT22;10891;49.350;19.386;2023-06-10T11:02:33;17.00;99.90
21459;DHT22;10891;49.350;19.386;2023-06-10T11:05:02;16.70;99.90
21459;DHT22;10891;49.350;19.386;2023-06-10T11:07:30;16.70;99.90
21459;DHT22;10891;49.350;19.386;2023-06-10T11:09:58;16.90;99.90
21459;DHT22;10891;49.350;19.386;2023-06-10T11:12:42;16.70;99.90
21459;DHT22;10891;49.350;19.386;2023-06-10T11:15:18;17.00;99.90
21459;DHT22;10891;49.350;19.386;2023-06-10T11:18:06;17.20;99.90
21459;DHT22;10891;49.350;19.386;2023-06-10T11:20:44;17.30;99.90
21459;DHT22;10891;49.350;19.386;2023-06-10T11:23:32;17.60;99.90
21459;DHT22;10891;49.350;19.386;2023-06-10T11:26:16;17.60;99.90
21459;DHT22;10891;49.350;19.386;2023-06-10T11:29:03;17.90;99.90
21459;DHT22;10891;49.350;19.386;2023-06-10T11:31:31;17.60;99.90
21459;DHT22;10891;49.350;19.386;2023-06-10T11:34:00;17.70;99.90
21459;DHT22;10891;49.350;19.386;2023-06-10T11:36:28;17.60;99.90
21459;DHT22;10891;49.350;19.386;2023-06-10T11:38:57;17.90;99.90
21459;DHT22;10891;49.350;19.386;2023-06-10T11:41:24;17.80;99.90
21459;DHT22;10891;49.350;19.386;2023-06-10T11:43:53;17.50;99.90
21459;DHT22;10891;49.350;19.386;2023-06-10T11:46:24;17.80;99.90
21459;DHT22;10891;49.350;19.386;2023-06-10T11:48:54;17.90;99.90
21459;DHT22;10891;49.350;19.386;2023-06-10T11:51:21;17.80;99.90
21459;DHT22;10891;49.350;19.386;2023-06-10T11:53:49;17.90;99.90
21459;DHT22;10891;49.350;19.386;2023-06-10T11:56:20;17.50;99.90
21459;DHT22;10891;49.350;19.386;2023-06-10T11:58:53;17.00;99.90
21459;DHT22;10891;49.350;19.386;2023-06-10T12:01:23;16.80;99.90
21459;DHT22;10891;49.350;19.386;2023-06-10T12:03:58;16.70;99.90
21459;DHT22;10891;49.350;19.386;2023-06-10T12:06:25;16.80;99.90
21459;DHT22;10891;49.350;19.386;2023-06-10T12:08:53;16.80;99.90
21459;DHT22;10891;49.350;19.386;2023-06-10T12:11:21;17.00;99.90
21459;DHT22;10891;49.350;19.386;2023-06-10T12:13:49;17.10;99.90
21459;DHT22;10891;49.350;19.386;2023-06-10T12:16:17;17.10;99.90
21459;DHT22;10891;49.350;19.386;2023-06-10T12:18:46;17.10;99.90
21459;DHT22;10891;49.350;19.386;2023-06-10T12:21:24;17.10;99.90
21459;DHT22;10891;49.350;19.386;2023-06-10T12:24:06;17.10;99.90
21459;DHT22;10891;49.350;19.386;2023-06-10T12:26:41;17.40;99.90
21459;DHT22;10891;49.350;19.386;2023-06-10T12:29:21;17.60;99.90
21459;DHT22;10891;49.350;19.386;2023-06-10T12:31:59;17.80;99.90
21459;DHT22;10891;49.350;19.386;2023-06-10T12:34:32;18.00;99.90
21459;DHT22;10891;49.350;19.386;2023-06-10T12:36:59;17.70;99.90
21459;DHT22;10891;49.350;19.386;2023-06-10T12:39:27;17.50;99.90
21459;DHT22;10891;49.350;19.386;2023-06-10T12:41:54;17.40;99.90
21459;DHT22;10891;49.350;19.386;2023-06-10T12:44:32;17.00;99.90
21459;DHT22;10891;49.350;19.386;2023-06-10T12:47:00;16.70;99.90
21459;DHT22;10891;49.350;19.386;2023-06-10T12:49:28;16.50;99.90
21459;DHT22;10891;49.350;19.386;2023-06-10T12:51:57;16.40;99.90
21459;DHT22;10891;49.350;19.386;2023-06-10T12:54:24;16.40;99.90
21459;DHT22;10891;49.350;19.386;2023-06-10T12:56:51;16.50;99.90
21459;DHT22;10891;49.350;19.386;2023-06-10T12:59:18;16.70;99.90
21459;DHT22;10891;49.350;19.386;2023-06-10T13:01:50;16.60;99.90
21459;DHT22;10891;49.350;19.386;2023-06-10T13:04:17;16.50;99.90
21459;DHT22;10891;49.350;19.386;2023-06-10T13:06:45;16.40;99.90
21459;DHT22;10891;49.350;19.386;2023-06-10T13:09:14;16.50;99.90
21459;DHT22;10891;49.350;19.386;2023-06-10T13:11:42;16.60;99.90
21459;DHT22;10891;49.350;19.386;2023-06-10T13:14:10;16.90;99.90
21459;DHT22;10891;49.350;19.386;2023-06-10T13:16:37;16.60;99.90
21459;DHT22;10891;49.350;19.386;2023-06-10T13:19:05;16.50;99.90
21459;DHT22;10891;49.350;19.386;2023-06-10T13:21:33;16.20;99.90
21459;DHT22;10891;49.350;19.386;2023-06-10T13:24:00;16.20;99.90
21459;DHT22;10891;49.350;19.386;2023-06-10T13:26:29;16.20;99.90
21459;DHT22;10891;49.350;19.386;2023-06-10T13:28:56;17.50;99.90
21459;DHT22;10891;49.350;19.386;2023-06-10T13:31:23;17.50;99.90
21459;DHT22;10891;49.350;19.386;2023-06-10T13:33:50;17.60;99.90
21459;DHT22;10891;49.350;19.386;2023-06-10T13:36:18;17.40;99.90
21459;DHT22;10891;49.350;19.386;2023-06-10T13:38:45;17.30;99.90
21459;DHT22;10891;49.350;19.386;2023-06-10T13:41:13;17.30;99.90
21459;DHT22;10891;49.350;19.386;2023-06-10T13:43:42;17.50;99.90
21459;DHT22;10891;49.350;19.386;2023-06-10T13:46:09;17.20;99.90
21459;DHT22;10891;49.350;19.386;2023-06-10T13:48:36;17.40;99.90
21459;DHT22;10891;49.350;19.386;2023-06-10T13:51:03;17.00;99.90
21459;DHT22;10891;49.350;19.386;2023-06-10T13:53:30;17.00;99.90
21459;DHT22;10891;49.350;19.386;2023-06-10T13:55:58;16.70;99.90
21459;DHT22;10891;49.350;19.386;2023-06-10T13:58:25;16.60;99.90
21459;DHT22;10891;49.350;19.386;2023-06-10T14:00:54;16.70;99.90
21459;DHT22;10891;49.350;19.386;2023-06-10T14:03:22;16.60;99.90
21459;DHT22;10891;49.350;19.386;2023-06-10T14:05:49;16.70;99.90
21459;DHT22;10891;49.350;19.386;2023-06-10T14:08:16;16.80;99.90
21459;DHT22;10891;49.350;19.386;2023-06-10T14:10:44;16.80;99.90
21459;DHT22;10891;49.350;19.386;2023-06-10T14:13:11;16.70;99.90
21459;DHT22;10891;49.350;19.386;2023-06-10T14:15:38;16.70;99.90
21459;DHT22;10891;49.350;19.386;2023-06-10T14:18:07;16.70;99.90
21459;DHT22;10891;49.350;19.386;2023-06-10T14:20:34;16.70;99.90
21459;DHT22;10891;49.350;19.386;2023-06-10T14:23:02;16.80;99.90
21459;DHT22;10891;49.350;19.386;2023-06-10T14:25:29;16.70;99.90
21459;DHT22;10891;49.350;19.386;2023-06-10T14:27:56;16.60;99.90
21459;DHT22;10891;49.350;19.386;2023-06-10T14:30:24;16.60;99.90
21459;DHT22;10891;49.350;19.386;2023-06-10T14:32:51;16.60;99.90
21459;DHT22;10891;49.350;19.386;2023-06-10T14:35:20;16.70;99.90
21459;DHT22;10891;49.350;19.386;2023-06-10T14:37:47;16.60;99.90
21459;DHT22;10891;49.350;19.386;2023-06-10T14:40:14;16.80;99.90
21459;DHT22;10891;49.350;19.386;2023-06-10T14:42:41;17.00;99.90
21459;DHT22;10891;49.350;19.386;2023-06-10T14:45:09;16.90;99.90
21459;DHT22;10891;49.350;19.386;2023-06-10T14:47:36;16.90;99.90
21459;DHT22;10891;49.350;19.386;2023-06-10T14:50:04;16.90;99.90
21459;DHT22;10891;49.350;19.386;2023-06-10T14:52:33;16.80;99.90
21459;DHT22;10891;49.350;19.386;2023-06-10T14:55:00;16.90;99.90
21459;DHT22;10891;49.350;19.386;2023-06-10T14:57:27;16.90;99.90
21459;DHT22;10891;49.350;19.386;2023-06-10T14:59:54;16.90;99.90
21459;DHT22;10891;49.350;19.386;2023-06-10T15:02:21;16.90;99.90
21459;DHT22;10891;49.350;19.386;2023-06-10T15:04:48;17.00;99.90
21459;DHT22;10891;49.350;19.386;2023-06-10T15:07:15;16.90;99.90
21459;DHT22;10891;49.350;19.386;2023-06-10T15:09:44;17.00;99.90
21459;DHT22;10891;49.350;19.386;2023-06-10T15:12:12;17.20;99.90
21459;DHT22;10891;49.350;19.386;2023-06-10T15:14:39;17.20;99.90
21459;DHT22;10891;49.350;19.386;2023-06-10T15:17:06;17.10;99.90
21459;DHT22;10891;49.350;19.386;2023-06-10T15:19:33;17.20;99.90
21459;DHT22;10891;49.350;19.386;2023-06-10T15:22:00;17.20;99.90
21459;DHT22;10891;49.350;19.386;2023-06-10T15:24:27;17.10;99.90